createdAt,value
2024-02-03T00:00:41.655Z,102837.00
2024-02-03T00:03:08.653Z,102841.00
2024-02-03T00:05:35.448Z,102835.00
2024-02-03T00:08:04.773Z,102833.00
2024-02-03T00:10:31.568Z,102827.00
2024-02-03T00:12:58.304Z,102825.00
2024-02-03T00:15:26.315Z,102830.00
2024-02-03T00:17:53.180Z,102825.00
2024-02-03T00:20:20.916Z,102831.00
2024-02-03T00:22:52.349Z,102829.00
2024-02-03T00:25:20.284Z,102832.00
2024-02-03T00:27:48.431Z,102826.00
2024-02-03T00:30:15.652Z,102825.00
2024-02-03T00:32:42.485Z,102820.00
2024-02-03T00:35:09.461Z,102818.00
2024-02-03T00:37:36.942Z,102821.00
2024-02-03T00:40:04.849Z,102824.00
2024-02-03T00:42:31.716Z,102824.00
2024-02-03T00:44:58.545Z,102817.00
2024-02-03T00:47:25.404Z,102814.00
2024-02-03T00:49:52.386Z,102818.00
2024-02-03T00:52:19.398Z,102815.00
2024-02-03T00:54:46.292Z,102813.00
2024-02-03T00:57:13.093Z,102815.00
2024-02-03T00:59:39.886Z,102819.00
2024-02-03T01:02:07.601Z,102822.00
2024-02-03T01:04:34.568Z,102818.00
2024-02-03T01:07:02.953Z,102821.00
2024-02-03T01:09:30.421Z,102818.00
2024-02-03T01:11:57.197Z,102811.00
2024-02-03T01:14:25.334Z,102802.00
2024-02-03T01:16:52.259Z,102794.00
2024-02-03T01:19:19.066Z,102796.00
2024-02-03T01:21:45.928Z,102794.00
2024-02-03T01:24:12.953Z,102793.00
2024-02-03T01:26:39.746Z,102802.00
2024-02-03T01:29:06.537Z,102800.00
2024-02-03T01:31:33.493Z,102795.00
2024-02-03T01:34:00.427Z,102792.00
2024-02-03T01:36:27.267Z,102793.00
2024-02-03T01:38:54.299Z,102792.00
2024-02-03T01:41:23.534Z,102801.00
2024-02-03T01:43:50.439Z,102798.00
2024-02-03T01:46:19.023Z,102798.00
2024-02-03T01:48:46.868Z,102799.00
2024-02-03T01:51:14.757Z,102794.00
2024-02-03T01:53:42.091Z,102797.00
2024-02-03T01:56:09.968Z,102802.00
2024-02-03T01:58:39.567Z,102802.00
2024-02-03T02:01:07.318Z,102809.00
2024-02-03T02:03:35.116Z,102811.00
2024-02-03T02:06:02.339Z,102802.00
2024-02-03T02:08:39.199Z,102795.00
2024-02-03T02:11:07.371Z,102791.00
2024-02-03T02:13:34.324Z,102788.00
2024-02-03T02:16:01.326Z,102780.00
2024-02-03T02:18:28.537Z,102784.00
2024-02-03T02:20:55.627Z,102783.00
2024-02-03T02:23:22.472Z,102784.00
2024-02-03T02:25:49.478Z,102786.00
2024-02-03T02:28:18.457Z,102778.00
2024-02-03T02:30:45.502Z,102775.00
2024-02-03T02:33:13.314Z,102775.00
2024-02-03T02:35:42.658Z,102764.00
2024-02-03T02:38:09.542Z,102763.00
2024-02-03T02:40:36.551Z,102758.00
2024-02-03T02:43:06.014Z,102760.00
2024-02-03T02:45:32.888Z,102761.00
2024-02-03T02:47:59.923Z,102754.00
2024-02-03T02:50:26.814Z,102746.00
2024-02-03T02:52:53.660Z,102746.00
2024-02-03T02:55:20.551Z,102743.00
2024-02-03T02:57:47.370Z,102734.00
2024-02-03T03:00:15.294Z,102735.00
2024-02-03T03:02:42.095Z,102752.00
2024-02-03T03:05:13.287Z,102746.00
2024-02-03T03:07:44.159Z,102753.00
2024-02-03T03:10:11.254Z,102746.00
2024-02-03T03:12:40.480Z,102739.00
2024-02-03T03:15:07.794Z,102746.00
2024-02-03T03:17:34.498Z,102745.00
2024-02-03T03:20:01.472Z,102751.00
2024-02-03T03:22:28.596Z,102742.00
2024-02-03T03:24:55.437Z,102742.00
2024-02-03T03:27:22.857Z,102749.00
2024-02-03T03:29:50.554Z,102741.00
2024-02-03T03:32:17.326Z,102735.00
2024-02-03T03:34:44.378Z,102739.00
2024-02-03T03:37:11.186Z,102742.00
2024-02-03T03:39:37.963Z,102743.00
2024-02-03T03:42:04.933Z,102746.00
2024-02-03T03:44:33.305Z,102752.00
2024-02-03T03:47:03.007Z,102743.00
2024-02-03T03:49:34.236Z,102747.00
2024-02-03T03:52:04.186Z,102741.00
2024-02-03T03:54:33.095Z,102739.00
2024-02-03T03:56:59.925Z,102743.00
2024-02-03T03:59:27.030Z,102739.00
2024-02-03T04:01:53.814Z,102734.00
2024-02-03T04:04:23.165Z,102734.00
2024-02-03T04:06:50.025Z,102733.00
2024-02-03T04:09:19.224Z,102732.00
2024-02-03T04:11:46.152Z,102731.00
2024-02-03T04:14:14.178Z,102731.00
2024-02-03T04:16:42.066Z,102732.00
2024-02-03T04:19:08.948Z,102738.00
2024-02-03T04:21:35.836Z,102730.00
2024-02-03T04:24:03.253Z,102733.00
2024-02-03T04:26:29.947Z,102729.00
2024-02-03T04:28:56.816Z,102734.00
2024-02-03T04:31:23.691Z,102730.00
2024-02-03T04:33:53.063Z,102738.00
2024-02-03T04:36:22.118Z,102731.00
2024-02-03T04:38:48.818Z,102737.00
2024-02-03T04:41:25.650Z,102742.00
2024-02-03T04:43:52.794Z,102738.00
2024-02-03T04:46:19.777Z,102741.00
2024-02-03T04:48:47.929Z,102741.00
2024-02-03T04:51:15.969Z,102735.00
2024-02-03T04:53:43.709Z,102726.00
2024-02-03T04:56:10.807Z,102736.00
2024-02-03T04:58:40.121Z,102731.00
2024-02-03T05:01:07.160Z,102742.00
2024-02-03T05:03:34.344Z,102733.00
2024-02-03T05:06:05.969Z,102739.00
2024-02-03T05:08:33.637Z,102734.00
2024-02-03T05:11:00.468Z,102737.00
2024-02-03T05:13:30.091Z,102733.00
2024-02-03T05:15:56.936Z,102727.00
2024-02-03T05:18:24.008Z,102729.00
2024-02-03T05:20:51.046Z,102733.00
2024-02-03T05:23:19.135Z,102726.00
2024-02-03T05:25:48.236Z,102731.00
2024-02-03T05:28:16.510Z,102730.00
2024-02-03T05:30:45.806Z,102729.00
2024-02-03T05:33:12.684Z,102729.00
2024-02-03T05:35:39.477Z,102726.00
2024-02-03T05:38:06.161Z,102721.00
2024-02-03T05:40:32.955Z,102723.00
2024-02-03T05:43:03.091Z,102726.00
2024-02-03T05:45:29.945Z,102720.00
2024-02-03T05:47:56.721Z,102719.00
2024-02-03T05:50:23.450Z,102717.00
2024-02-03T05:52:50.457Z,102709.00
2024-02-03T05:55:17.341Z,102714.00
2024-02-03T05:57:55.503Z,102727.00
2024-02-03T06:00:22.866Z,102722.00
2024-02-03T06:02:50.040Z,102717.00
2024-02-03T06:05:17.509Z,102718.00
2024-02-03T06:07:44.592Z,102723.00
2024-02-03T06:10:11.417Z,102723.00
2024-02-03T06:12:38.154Z,102725.00
2024-02-03T06:15:05.357Z,102719.00
2024-02-03T06:17:32.271Z,102719.00
2024-02-03T06:19:59.303Z,102727.00
2024-02-03T06:22:26.142Z,102729.00
2024-02-03T06:24:52.962Z,102724.00
2024-02-03T06:27:20.300Z,102727.00
2024-02-03T06:29:47.153Z,102713.00
2024-02-03T06:32:13.822Z,102719.00
2024-02-03T06:34:40.756Z,102724.00
2024-02-03T06:37:07.909Z,102709.00
2024-02-03T06:39:34.909Z,102705.00
2024-02-03T06:42:01.863Z,102709.00
2024-02-03T06:44:28.560Z,102708.00
2024-02-03T06:46:55.220Z,102721.00
2024-02-03T06:49:21.961Z,102722.00
2024-02-03T06:51:49.087Z,102732.00
2024-02-03T06:54:15.899Z,102730.00
2024-02-03T06:56:42.609Z,102738.00
2024-02-03T06:59:09.468Z,102734.00
2024-02-03T07:01:36.146Z,102737.00
2024-02-03T07:04:03.082Z,102736.00
2024-02-03T07:06:30.134Z,102739.00
2024-02-03T07:08:56.903Z,102731.00
2024-02-03T07:11:23.523Z,102733.00
2024-02-03T07:13:50.262Z,102735.00
2024-02-03T07:16:16.976Z,102741.00
2024-02-03T07:18:43.845Z,102745.00
2024-02-03T07:21:10.685Z,102741.00
2024-02-03T07:23:37.402Z,102746.00
2024-02-03T07:26:04.243Z,102743.00
2024-02-03T07:28:31.045Z,102746.00
2024-02-03T07:30:58.054Z,102751.00
2024-02-03T07:33:27.151Z,102756.00
2024-02-03T07:35:53.949Z,102758.00
2024-02-03T07:38:20.637Z,102760.00
2024-02-03T07:40:47.267Z,102766.00
2024-02-03T07:43:14.174Z,102768.00
2024-02-03T07:45:41.026Z,102766.00
2024-02-03T07:48:08.027Z,102770.00
2024-02-03T07:50:34.860Z,102777.00
2024-02-03T07:53:01.802Z,102775.00
2024-02-03T07:55:29.500Z,102781.00
2024-02-03T07:57:56.343Z,102776.00
2024-02-03T08:00:23.931Z,102777.00
2024-02-03T08:02:53.317Z,102773.00
2024-02-03T08:05:20.163Z,102772.00
2024-02-03T08:07:47.115Z,102764.00
2024-02-03T08:10:13.951Z,102771.00
2024-02-03T08:12:40.703Z,102776.00
2024-02-03T08:15:07.921Z,102766.00
2024-02-03T08:17:34.860Z,102772.00
2024-02-03T08:20:02.203Z,102761.00
2024-02-03T08:22:29.711Z,102763.00
2024-02-03T08:24:56.640Z,102763.00
2024-02-03T08:27:23.611Z,102761.00
2024-02-03T08:29:50.334Z,102771.00
2024-02-03T08:32:17.402Z,102773.00
2024-02-03T08:37:18.780Z,102783.00
2024-02-03T08:39:47.394Z,102786.00
2024-02-03T08:42:16.463Z,102789.00
2024-02-03T08:44:43.199Z,102797.00
2024-02-03T08:47:10.199Z,102803.00
2024-02-03T08:49:37.248Z,102808.00
2024-02-03T08:52:04.115Z,102809.00
2024-02-03T08:54:30.893Z,102813.00
2024-02-03T08:56:57.617Z,102810.00
2024-02-03T08:59:24.316Z,102816.00
2024-02-03T09:01:51.106Z,102821.00
2024-02-03T09:04:17.955Z,102830.00
2024-02-03T09:06:44.649Z,102826.00
2024-02-03T09:09:11.382Z,102825.00
2024-02-03T09:11:38.246Z,102821.00
2024-02-03T09:14:05.919Z,102817.00
2024-02-03T09:16:32.727Z,102817.00
2024-02-03T09:18:59.583Z,102814.00
2024-02-03T09:21:26.454Z,102812.00
2024-02-03T09:23:53.257Z,102811.00
2024-02-03T09:26:20.017Z,102809.00
2024-02-03T09:28:47.182Z,102805.00
2024-02-03T09:31:20.788Z,102807.00
2024-02-03T09:33:48.471Z,102812.00
2024-02-03T09:36:15.539Z,102816.00
2024-02-03T09:38:44.802Z,102820.00
2024-02-03T09:41:11.894Z,102816.00
2024-02-03T09:43:38.740Z,102820.00
2024-02-03T09:46:05.879Z,102823.00
2024-02-03T09:48:32.737Z,102826.00
2024-02-03T09:51:01.132Z,102817.00
2024-02-03T09:53:28.455Z,102805.00
2024-02-03T09:55:58.694Z,102807.00
2024-02-03T09:58:26.511Z,102801.00
2024-02-03T10:00:56.850Z,102801.00
2024-02-03T10:03:23.768Z,102805.00
2024-02-03T10:06:01.037Z,102808.00
2024-02-03T10:08:30.742Z,102796.00
2024-02-03T10:10:58.035Z,102802.00
2024-02-03T10:13:25.314Z,102805.00
2024-02-03T10:16:02.915Z,102793.00
2024-02-03T10:18:33.139Z,102794.00
2024-02-03T10:21:03.856Z,102794.00
2024-02-03T10:23:31.144Z,102792.00
2024-02-03T10:25:58.847Z,102797.00
2024-02-03T10:28:26.171Z,102799.00
2024-02-03T10:30:58.829Z,102790.00
2024-02-03T10:33:27.643Z,102786.00
2024-02-03T10:35:54.404Z,102783.00
2024-02-03T10:38:21.450Z,102797.00
2024-02-03T10:40:48.272Z,102799.00
2024-02-03T10:43:24.408Z,102802.00
2024-02-03T10:45:58.087Z,102808.00
2024-02-03T10:48:30.093Z,102797.00
2024-02-03T10:51:02.084Z,102798.00
2024-02-03T10:53:35.401Z,102792.00
2024-02-03T10:56:06.250Z,102787.00
2024-02-03T10:58:33.725Z,102805.00
2024-02-03T11:01:22.983Z,102798.00
2024-02-03T11:03:50.594Z,102803.00
2024-02-03T11:06:34.795Z,102805.00
2024-02-03T11:09:13.026Z,102800.00
2024-02-03T11:11:45.855Z,102802.00
2024-02-03T11:14:15.158Z,102805.00
2024-02-03T11:16:42.017Z,102796.00
2024-02-03T11:19:18.217Z,102793.00
2024-02-03T11:21:45.523Z,102785.00
2024-02-03T11:24:12.586Z,102783.00
2024-02-03T11:26:39.572Z,102792.00
2024-02-03T11:29:07.283Z,102780.00
2024-02-03T11:31:34.164Z,102762.00
2024-02-03T11:34:01.165Z,102770.00
2024-02-03T11:36:31.167Z,102774.00
2024-02-03T11:38:57.830Z,102771.00
2024-02-03T11:41:25.002Z,102776.00
2024-02-03T11:43:51.759Z,102775.00
2024-02-03T11:46:19.146Z,102775.00
2024-02-03T11:48:47.315Z,102780.00
2024-02-03T11:51:16.486Z,102778.00
2024-02-03T11:53:44.023Z,102775.00
2024-02-03T11:56:10.704Z,102783.00
2024-02-03T11:58:37.753Z,102778.00
2024-02-03T12:01:14.705Z,102771.00
2024-02-03T12:03:42.425Z,102769.00
2024-02-03T12:06:09.492Z,102776.00
2024-02-03T12:08:36.569Z,102781.00
2024-02-03T12:11:04.419Z,102766.00
2024-02-03T12:13:42.435Z,102762.00
2024-02-03T12:16:11.989Z,102763.00
2024-02-03T12:18:41.223Z,102756.00
2024-02-03T12:21:08.525Z,102758.00
2024-02-03T12:23:35.401Z,102751.00
2024-02-03T12:26:02.260Z,102752.00
2024-02-03T12:28:32.119Z,102753.00
2024-02-03T12:30:59.834Z,102759.00
2024-02-03T12:33:27.558Z,102754.00
2024-02-03T12:35:54.556Z,102741.00
2024-02-03T12:38:22.674Z,102737.00
2024-02-03T12:40:49.842Z,102743.00
2024-02-03T12:43:17.003Z,102748.00
2024-02-03T12:45:43.924Z,102744.00
2024-02-03T12:48:10.891Z,102730.00
2024-02-03T12:50:38.033Z,102740.00
2024-02-03T12:53:06.237Z,102742.00
2024-02-03T12:55:33.157Z,102758.00
2024-02-03T12:58:00.900Z,102730.00
2024-02-03T13:00:27.952Z,102726.00
2024-02-03T13:02:57.247Z,102729.00
2024-02-03T13:05:24.410Z,102725.00
2024-02-03T13:07:52.851Z,102738.00
2024-02-03T13:10:19.831Z,102725.00
2024-02-03T13:12:47.529Z,102726.00
2024-02-03T13:15:15.133Z,102721.00
2024-02-03T13:17:44.084Z,102720.00
2024-02-03T13:20:11.614Z,102732.00
2024-02-03T13:22:38.400Z,102732.00
2024-02-03T13:25:05.625Z,102724.00
2024-02-03T13:27:32.863Z,102728.00
2024-02-03T13:29:59.604Z,102726.00
2024-02-03T13:32:28.991Z,102728.00
2024-02-03T13:34:56.079Z,102721.00
2024-02-03T13:37:23.115Z,102727.00
2024-02-03T13:39:49.909Z,102727.00
2024-02-03T13:42:17.509Z,102733.00
2024-02-03T13:44:44.786Z,102723.00
2024-02-03T13:47:11.576Z,102719.00
2024-02-03T13:49:38.926Z,102727.00
2024-02-03T13:52:06.207Z,102723.00
2024-02-03T13:54:33.142Z,102730.00
2024-02-03T13:56:59.944Z,102734.00
2024-02-03T13:59:29.527Z,102726.00
2024-02-03T14:01:56.345Z,102728.00
2024-02-03T14:04:23.255Z,102722.00
2024-02-03T14:06:52.335Z,102736.00
2024-02-03T14:09:19.168Z,102725.00
2024-02-03T14:11:53.688Z,102726.00
2024-02-03T14:14:23.341Z,102726.00
2024-02-03T14:16:50.728Z,102729.00
2024-02-03T14:19:17.937Z,102730.00
2024-02-03T14:21:45.066Z,102730.00
2024-02-03T14:24:12.854Z,102716.00
2024-02-03T14:26:39.848Z,102707.00
2024-02-03T14:29:06.547Z,102706.00
2024-02-03T14:31:33.380Z,102707.00
2024-02-03T14:34:00.385Z,102698.00
2024-02-03T14:36:27.386Z,102703.00
2024-02-03T14:38:54.221Z,102693.00
2024-02-03T14:41:21.037Z,102694.00
2024-02-03T14:43:47.680Z,102691.00
2024-02-03T14:46:14.518Z,102697.00
2024-02-03T14:48:42.632Z,102694.00
2024-02-03T14:51:11.643Z,102708.00
2024-02-03T14:53:38.599Z,102705.00
2024-02-03T14:56:05.827Z,102702.00
2024-02-03T14:58:33.001Z,102703.00
2024-02-03T15:01:00.066Z,102701.00
2024-02-03T15:03:26.950Z,102695.00
2024-02-03T15:05:53.773Z,102703.00
2024-02-03T15:08:20.701Z,102708.00
2024-02-03T15:10:49.100Z,102701.00
2024-02-03T15:13:16.049Z,102694.00
2024-02-03T15:15:42.774Z,102697.00
2024-02-03T15:18:12.293Z,102696.00
2024-02-03T15:20:39.103Z,102702.00
2024-02-03T15:23:06.142Z,102699.00
2024-02-03T15:25:33.806Z,102697.00
2024-02-03T15:28:00.708Z,102694.00
2024-02-03T15:30:27.661Z,102692.00
2024-02-03T15:32:54.386Z,102697.00
2024-02-03T15:35:21.152Z,102696.00
2024-02-03T15:37:48.393Z,102697.00
2024-02-03T15:40:15.167Z,102705.00
2024-02-03T15:42:51.026Z,102695.00
2024-02-03T15:45:24.334Z,102695.00
2024-02-03T15:47:51.115Z,102696.00
2024-02-03T15:50:18.100Z,102692.00
2024-02-03T15:52:44.821Z,102698.00
2024-02-03T15:55:13.121Z,102701.00
2024-02-03T15:57:40.110Z,102701.00
2024-02-03T16:00:07.553Z,102695.00
2024-02-03T16:02:34.359Z,102705.00
2024-02-03T16:05:01.149Z,102705.00
2024-02-03T16:07:27.902Z,102702.00
2024-02-03T16:09:54.677Z,102694.00
2024-02-03T16:12:22.481Z,102692.00
2024-02-03T16:14:50.479Z,102689.00
2024-02-03T16:17:17.502Z,102695.00
2024-02-03T16:19:44.281Z,102692.00
2024-02-03T16:22:11.112Z,102691.00
2024-02-03T16:24:38.035Z,102691.00
2024-02-03T16:27:05.135Z,102685.00
2024-02-03T16:29:32.171Z,102681.00
2024-02-03T16:31:58.984Z,102679.00
2024-02-03T16:34:25.974Z,102681.00
2024-02-03T16:36:52.894Z,102682.00
2024-02-03T16:39:19.563Z,102694.00
2024-02-03T16:41:46.290Z,102676.00
2024-02-03T16:44:13.143Z,102682.00
2024-02-03T16:46:39.782Z,102672.00
2024-02-03T16:49:06.684Z,102676.00
2024-02-03T16:51:35.693Z,102674.00
2024-02-03T16:54:02.388Z,102683.00
2024-02-03T16:56:29.062Z,102682.00
2024-02-03T16:58:55.744Z,102674.00
2024-02-03T17:01:22.558Z,102668.00
2024-02-03T17:03:49.347Z,102665.00
2024-02-03T17:06:16.215Z,102661.00
2024-02-03T17:08:44.004Z,102659.00
2024-02-03T17:11:10.656Z,102654.00
2024-02-03T17:13:37.356Z,102662.00
2024-02-03T17:16:07.344Z,102663.00
2024-02-03T17:18:34.368Z,102662.00
2024-02-03T17:21:01.250Z,102668.00
2024-02-03T17:23:27.916Z,102664.00
2024-02-03T17:25:54.572Z,102653.00
2024-02-03T17:28:21.279Z,102649.00
2024-02-03T17:30:47.977Z,102655.00
2024-02-03T17:33:15.359Z,102655.00
2024-02-03T17:35:42.260Z,102656.00
2024-02-03T17:38:08.991Z,102652.00
2024-02-03T17:40:35.743Z,102649.00
2024-02-03T17:43:02.566Z,102650.00
2024-02-03T17:45:29.323Z,102660.00
2024-02-03T17:47:56.251Z,102661.00
2024-02-03T17:50:23.016Z,102660.00
2024-02-03T17:52:49.978Z,102671.00
2024-02-03T17:55:16.680Z,102678.00
2024-02-03T17:57:44.301Z,102682.00
2024-02-03T18:00:12.149Z,102679.00
2024-02-03T18:02:39.137Z,102706.00
2024-02-03T18:05:07.253Z,102693.00
2024-02-03T18:07:35.575Z,102686.00
2024-02-03T18:10:02.645Z,102678.00
2024-02-03T18:12:29.510Z,102674.00
2024-02-03T18:14:56.354Z,102670.00
2024-02-03T18:17:23.175Z,102668.00
2024-02-03T18:19:50.092Z,102663.00
2024-02-03T18:22:16.894Z,102664.00
2024-02-03T18:24:43.780Z,102662.00
2024-02-03T18:27:10.653Z,102668.00
2024-02-03T18:29:37.962Z,102662.00
2024-02-03T18:32:05.141Z,102663.00
2024-02-03T18:34:32.059Z,102660.00
2024-02-03T18:36:59.103Z,102663.00
2024-02-03T18:39:26.005Z,102665.00
2024-02-03T18:41:52.788Z,102668.00
2024-02-03T18:44:19.536Z,102668.00
2024-02-03T18:46:46.448Z,102674.00
2024-02-03T18:49:13.941Z,102680.00
2024-02-03T18:51:40.870Z,102679.00
2024-02-03T18:54:07.542Z,102674.00
2024-02-03T18:56:34.267Z,102673.00
2024-02-03T18:59:00.924Z,102668.00
2024-02-03T19:01:29.039Z,102662.00
2024-02-03T19:04:01.957Z,102666.00
2024-02-03T19:06:29.829Z,102666.00
2024-02-03T19:08:57.734Z,102670.00
2024-02-03T19:11:24.661Z,102667.00
2024-02-03T19:13:52.434Z,102676.00
2024-02-03T19:16:19.309Z,102670.00
2024-02-03T19:18:46.850Z,102675.00
2024-02-03T19:21:13.664Z,102681.00
2024-02-03T19:23:42.895Z,102682.00
2024-02-03T19:26:09.837Z,102681.00
2024-02-03T19:28:36.735Z,102666.00
2024-02-03T19:31:04.228Z,102658.00
2024-02-03T19:33:31.102Z,102671.00
2024-02-03T19:35:57.780Z,102671.00
2024-02-03T19:38:24.527Z,102669.00
2024-02-03T19:40:51.538Z,102666.00
2024-02-03T19:43:18.335Z,102667.00
2024-02-03T19:45:49.926Z,102676.00
2024-02-03T19:48:19.337Z,102674.00
2024-02-03T19:50:46.174Z,102672.00
2024-02-03T19:53:12.834Z,102670.00
2024-02-03T19:55:42.060Z,102671.00
2024-02-03T19:58:08.786Z,102664.00
2024-02-03T20:00:35.667Z,102673.00
2024-02-03T20:03:02.543Z,102673.00
2024-02-03T20:05:29.215Z,102664.00
2024-02-03T20:07:57.300Z,102680.00
2024-02-03T20:10:27.835Z,102682.00
2024-02-03T20:12:54.849Z,102679.00
2024-02-03T20:15:23.126Z,102680.00
2024-02-03T20:17:50.018Z,102678.00
2024-02-03T20:20:16.876Z,102679.00
2024-02-03T20:22:43.866Z,102677.00
2024-02-03T20:25:10.841Z,102675.00
2024-02-03T20:27:38.449Z,102671.00
2024-02-03T20:30:06.261Z,102671.00
2024-02-03T20:32:33.231Z,102670.00
2024-02-03T20:35:00.269Z,102683.00
2024-02-03T20:37:32.112Z,102672.00
2024-02-03T20:40:01.100Z,102679.00
2024-02-03T20:42:28.872Z,102680.00
2024-02-03T20:44:55.652Z,102668.00
2024-02-03T20:47:22.473Z,102668.00
2024-02-03T20:49:49.357Z,102671.00
2024-02-03T20:52:16.553Z,102670.00
2024-02-03T20:54:43.360Z,102669.00
2024-02-03T20:57:11.535Z,102675.00
2024-02-03T20:59:38.298Z,102672.00
2024-02-03T21:02:05.723Z,102677.00
2024-02-03T21:04:40.137Z,102674.00
2024-02-03T21:07:09.767Z,102668.00
2024-02-03T21:09:36.659Z,102675.00
2024-02-03T21:12:03.670Z,102671.00
2024-02-03T21:14:30.596Z,102670.00
2024-02-03T21:16:57.981Z,102668.00
2024-02-03T21:19:28.544Z,102662.00
2024-02-03T21:21:55.580Z,102657.00
2024-02-03T21:24:22.397Z,102648.00
2024-02-03T21:26:50.706Z,102641.00
2024-02-03T21:29:17.650Z,102645.00
2024-02-03T21:31:44.759Z,102629.00
2024-02-03T21:34:11.679Z,102628.00
2024-02-03T21:36:38.661Z,102622.00
2024-02-03T21:39:05.944Z,102614.00
2024-02-03T21:41:33.215Z,102610.00
2024-02-03T21:44:00.023Z,102604.00
2024-02-03T21:46:27.028Z,102597.00
2024-02-03T21:48:53.863Z,102607.00
2024-02-03T21:51:20.767Z,102602.00
2024-02-03T21:53:47.584Z,102608.00
2024-02-03T21:56:15.794Z,102589.00
2024-02-03T21:58:43.019Z,102595.00
2024-02-03T22:01:10.554Z,102584.00
2024-02-03T22:03:38.516Z,102580.00
2024-02-03T22:06:06.846Z,102588.00
2024-02-03T22:08:34.070Z,102591.00
2024-02-03T22:11:01.256Z,102579.00
2024-02-03T22:13:27.964Z,102581.00
2024-02-03T22:15:55.163Z,102577.00
2024-02-03T22:18:22.336Z,102575.00
2024-02-03T22:20:49.231Z,102580.00
2024-02-03T22:23:18.011Z,102577.00
2024-02-03T22:25:44.689Z,102570.00
2024-02-03T22:28:11.960Z,102572.00
2024-02-03T22:30:38.772Z,102582.00
2024-02-03T22:33:05.870Z,102577.00
2024-02-03T22:35:36.479Z,102593.00
2024-02-03T22:38:03.215Z,102591.00
2024-02-03T22:40:30.135Z,102585.00
2024-02-03T22:42:57.005Z,102584.00
2024-02-03T22:45:23.803Z,102595.00
2024-02-03T22:47:50.761Z,102597.00
2024-02-03T22:50:20.064Z,102601.00
2024-02-03T22:52:46.765Z,102604.00
2024-02-03T22:55:13.503Z,102608.00
2024-02-03T22:57:40.327Z,102610.00
2024-02-03T23:00:15.904Z,102608.00
2024-02-03T23:02:42.782Z,102610.00
2024-02-03T23:05:10.161Z,102613.00
2024-02-03T23:07:37.080Z,102618.00
2024-02-03T23:10:05.387Z,102616.00
2024-02-03T23:12:32.314Z,102609.00
2024-02-03T23:15:00.417Z,102611.00
2024-02-03T23:17:27.174Z,102619.00
2024-02-03T23:19:54.163Z,102617.00
2024-02-03T23:22:21.114Z,102621.00
2024-02-03T23:24:50.145Z,102619.00
2024-02-03T23:27:17.644Z,102627.00
2024-02-03T23:29:44.786Z,102641.00
2024-02-03T23:32:11.632Z,102627.00
2024-02-03T23:34:38.342Z,102630.00
2024-02-03T23:37:07.769Z,102633.00
2024-02-03T23:39:34.586Z,102634.00
2024-02-03T23:42:01.484Z,102638.00
2024-02-03T23:44:30.433Z,102627.00
2024-02-03T23:46:57.250Z,102635.00
2024-02-03T23:49:26.522Z,102630.00
2024-02-03T23:51:53.375Z,102631.00
2024-02-03T23:54:20.353Z,102641.00
2024-02-03T23:56:47.145Z,102648.00
2024-02-03T23:59:16.843Z,102641.00
